sensor_id;sensor_type;location;lat;lon;timestamp;P1;durP1;ratioP1;P2;durP2;ratioP2
40867;SDS011;26586;50.708;22.412;2023-02-24T00:01:33;12.40;;;6.38;;
40867;SDS011;26586;50.708;22.412;2023-02-24T00:04:05;12.60;;;7.30;;
40867;SDS011;26586;50.708;22.412;2023-02-24T00:06:33;11.07;;;6.25;;
40867;SDS011;26586;50.708;22.412;2023-02-24T00:09:23;11.60;;;5.60;;
40867;SDS011;26586;50.708;22.412;2023-02-24T00:11:53;12.02;;;7.00;;
40867;SDS011;26586;50.708;22.412;2023-02-24T00:14:28;10.05;;;6.45;;
40867;SDS011;26586;50.708;22.412;2023-02-24T00:17:00;12.68;;;5.78;;
40867;SDS011;26586;50.708;22.412;2023-02-24T00:19:27;10.90;;;6.60;;
40867;SDS011;26586;50.708;22.412;2023-02-24T00:21:57;10.48;;;6.00;;
40867;SDS011;26586;50.708;22.412;2023-02-24T00:24:24;10.38;;;5.95;;
40867;SDS011;26586;50.708;22.412;2023-02-24T00:26:55;15.40;;;6.53;;
40867;SDS011;26586;50.708;22.412;2023-02-24T00:29:24;10.55;;;6.03;;
40867;SDS011;26586;50.708;22.412;2023-02-24T00:31:53;12.52;;;5.75;;
40867;SDS011;26586;50.708;22.412;2023-02-24T00:34:33;12.98;;;6.18;;
40867;SDS011;26586;50.708;22.412;2023-02-24T00:37:02;11.88;;;5.50;;
40867;SDS011;26586;50.708;22.412;2023-02-24T00:39:31;11.10;;;6.57;;
40867;SDS011;26586;50.708;22.412;2023-02-24T00:41:59;11.18;;;6.05;;
40867;SDS011;26586;50.708;22.412;2023-02-24T00:44:32;10.57;;;5.60;;
40867;SDS011;26586;50.708;22.412;2023-02-24T00:47:01;10.23;;;5.78;;
40867;SDS011;26586;50.708;22.412;2023-02-24T00:49:29;9.88;;;5.47;;
40867;SDS011;26586;50.708;22.412;2023-02-24T00:51:56;13.18;;;6.70;;
40867;SDS011;26586;50.708;22.412;2023-02-24T00:54:23;11.23;;;5.63;;
40867;SDS011;26586;50.708;22.412;2023-02-24T00:56:53;9.82;;;5.90;;
40867;SDS011;26586;50.708;22.412;2023-02-24T00:59:20;11.57;;;6.57;;
40867;SDS011;26586;50.708;22.412;2023-02-24T01:01:48;9.90;;;6.60;;
40867;SDS011;26586;50.708;22.412;2023-02-24T01:04:15;9.57;;;6.13;;
40867;SDS011;26586;50.708;22.412;2023-02-24T01:06:44;11.30;;;5.88;;
40867;SDS011;26586;50.708;22.412;2023-02-24T01:09:13;11.32;;;6.10;;
40867;SDS011;26586;50.708;22.412;2023-02-24T01:11:42;11.52;;;6.70;;
40867;SDS011;26586;50.708;22.412;2023-02-24T01:14:29;12.98;;;6.93;;
40867;SDS011;26586;50.708;22.412;2023-02-24T01:16:56;14.10;;;7.88;;
40867;SDS011;26586;50.708;22.412;2023-02-24T01:19:28;17.10;;;7.57;;
40867;SDS011;26586;50.708;22.412;2023-02-24T01:21:56;15.52;;;7.57;;
40867;SDS011;26586;50.708;22.412;2023-02-24T01:24:24;11.02;;;6.35;;
40867;SDS011;26586;50.708;22.412;2023-02-24T01:26:50;13.50;;;6.85;;
40867;SDS011;26586;50.708;22.412;2023-02-24T01:29:17;13.80;;;6.47;;
40867;SDS011;26586;50.708;22.412;2023-02-24T01:31:44;13.65;;;6.40;;
40867;SDS011;26586;50.708;22.412;2023-02-24T01:34:10;12.48;;;6.28;;
40867;SDS011;26586;50.708;22.412;2023-02-24T01:36:38;12.55;;;7.20;;
40867;SDS011;26586;50.708;22.412;2023-02-24T01:42:11;11.73;;;6.85;;
40867;SDS011;26586;50.708;22.412;2023-02-24T01:47:12;10.80;;;5.85;;
40867;SDS011;26586;50.708;22.412;2023-02-24T01:49:48;14.27;;;7.05;;
40867;SDS011;26586;50.708;22.412;2023-02-24T01:54:50;15.38;;;7.32;;
40867;SDS011;26586;50.708;22.412;2023-02-24T01:57:20;13.18;;;6.70;;
40867;SDS011;26586;50.708;22.412;2023-02-24T01:59:49;12.68;;;7.10;;
40867;SDS011;26586;50.708;22.412;2023-02-24T02:02:17;10.30;;;6.38;;
40867;SDS011;26586;50.708;22.412;2023-02-24T02:04:50;11.52;;;6.45;;
40867;SDS011;26586;50.708;22.412;2023-02-24T02:07:38;13.32;;;7.18;;
40867;SDS011;26586;50.708;22.412;2023-02-24T02:10:07;12.45;;;7.10;;
40867;SDS011;26586;50.708;22.412;2023-02-24T02:12:34;12.18;;;6.57;;
40867;SDS011;26586;50.708;22.412;2023-02-24T02:15:10;12.68;;;6.78;;
40867;SDS011;26586;50.708;22.412;2023-02-24T02:35:05;15.32;;;6.85;;
40867;SDS011;26586;50.708;22.412;2023-02-24T02:40:39;12.40;;;6.45;;
40867;SDS011;26586;50.708;22.412;2023-02-24T02:45:53;12.60;;;6.05;;
40867;SDS011;26586;50.708;22.412;2023-02-24T02:48:33;10.95;;;6.20;;
40867;SDS011;26586;50.708;22.412;2023-02-24T02:53:40;10.82;;;6.15;;
40867;SDS011;26586;50.708;22.412;2023-02-24T02:59:38;19.17;;;8.18;;
40867;SDS011;26586;50.708;22.412;2023-02-24T03:02:14;11.52;;;6.20;;
40867;SDS011;26586;50.708;22.412;2023-02-24T03:04:52;9.15;;;4.90;;
40867;SDS011;26586;50.708;22.412;2023-02-24T03:07:21;8.85;;;4.85;;
40867;SDS011;26586;50.708;22.412;2023-02-24T03:09:57;7.05;;;4.45;;
40867;SDS011;26586;50.708;22.412;2023-02-24T03:12:26;9.68;;;5.10;;
40867;SDS011;26586;50.708;22.412;2023-02-24T03:14:57;8.75;;;4.72;;
40867;SDS011;26586;50.708;22.412;2023-02-24T03:17:29;10.82;;;4.60;;
40867;SDS011;26586;50.708;22.412;2023-02-24T03:20:03;8.88;;;5.22;;
40867;SDS011;26586;50.708;22.412;2023-02-24T03:28:26;9.25;;;4.38;;
40867;SDS011;26586;50.708;22.412;2023-02-24T03:31:01;11.85;;;5.20;;
40867;SDS011;26586;50.708;22.412;2023-02-24T03:33:38;8.75;;;4.30;;
40867;SDS011;26586;50.708;22.412;2023-02-24T03:36:09;7.85;;;3.67;;
40867;SDS011;26586;50.708;22.412;2023-02-24T03:38:39;7.03;;;4.20;;
40867;SDS011;26586;50.708;22.412;2023-02-24T03:41:07;9.93;;;4.45;;
40867;SDS011;26586;50.708;22.412;2023-02-24T03:43:36;8.73;;;3.97;;
40867;SDS011;26586;50.708;22.412;2023-02-24T03:46:09;7.47;;;4.28;;
40867;SDS011;26586;50.708;22.412;2023-02-24T03:48:37;7.57;;;3.77;;
40867;SDS011;26586;50.708;22.412;2023-02-24T03:51:15;10.25;;;4.22;;
40867;SDS011;26586;50.708;22.412;2023-02-24T04:02:03;7.28;;;3.85;;
40867;SDS011;26586;50.708;22.412;2023-02-24T04:04:47;7.38;;;3.53;;
40867;SDS011;26586;50.708;22.412;2023-02-24T04:14:57;6.90;;;3.28;;
40867;SDS011;26586;50.708;22.412;2023-02-24T04:17:42;7.90;;;4.10;;
40867;SDS011;26586;50.708;22.412;2023-02-24T04:20:13;8.40;;;3.80;;
40867;SDS011;26586;50.708;22.412;2023-02-24T04:22:46;10.40;;;4.28;;
40867;SDS011;26586;50.708;22.412;2023-02-24T04:25:16;8.02;;;3.55;;
40867;SDS011;26586;50.708;22.412;2023-02-24T04:27:52;8.15;;;3.83;;
40867;SDS011;26586;50.708;22.412;2023-02-24T04:30:21;7.20;;;3.67;;
40867;SDS011;26586;50.708;22.412;2023-02-24T04:32:51;8.52;;;3.90;;
40867;SDS011;26586;50.708;22.412;2023-02-24T04:35:19;9.00;;;3.67;;
40867;SDS011;26586;50.708;22.412;2023-02-24T04:37:47;7.78;;;4.10;;
40867;SDS011;26586;50.708;22.412;2023-02-24T04:40:15;8.45;;;3.70;;
40867;SDS011;26586;50.708;22.412;2023-02-24T04:42:43;7.65;;;3.55;;
40867;SDS011;26586;50.708;22.412;2023-02-24T04:47:50;9.20;;;4.00;;
40867;SDS011;26586;50.708;22.412;2023-02-24T04:50:21;7.40;;;3.58;;
40867;SDS011;26586;50.708;22.412;2023-02-24T04:52:52;6.78;;;3.85;;
40867;SDS011;26586;50.708;22.412;2023-02-24T04:55:20;8.88;;;4.53;;
40867;SDS011;26586;50.708;22.412;2023-02-24T04:57:51;9.52;;;4.50;;
40867;SDS011;26586;50.708;22.412;2023-02-24T05:00:18;9.18;;;4.10;;
40867;SDS011;26586;50.708;22.412;2023-02-24T05:02:49;7.45;;;3.70;;
40867;SDS011;26586;50.708;22.412;2023-02-24T05:05:17;9.02;;;3.72;;
40867;SDS011;26586;50.708;22.412;2023-02-24T05:07:51;6.40;;;4.07;;
40867;SDS011;26586;50.708;22.412;2023-02-24T05:10:28;6.60;;;3.33;;
40867;SDS011;26586;50.708;22.412;2023-02-24T05:12:56;10.05;;;4.53;;
40867;SDS011;26586;50.708;22.412;2023-02-24T05:15:22;5.70;;;3.20;;
40867;SDS011;26586;50.708;22.412;2023-02-24T05:17:56;7.78;;;3.78;;
40867;SDS011;26586;50.708;22.412;2023-02-24T05:20:42;7.43;;;3.55;;
40867;SDS011;26586;50.708;22.412;2023-02-24T05:25:56;9.18;;;3.80;;
40867;SDS011;26586;50.708;22.412;2023-02-24T05:30:50;5.78;;;3.13;;
40867;SDS011;26586;50.708;22.412;2023-02-24T05:33:19;6.25;;;3.65;;
40867;SDS011;26586;50.708;22.412;2023-02-24T05:35:48;6.72;;;3.58;;
40867;SDS011;26586;50.708;22.412;2023-02-24T05:38:18;10.70;;;4.40;;
40867;SDS011;26586;50.708;22.412;2023-02-24T05:40:45;6.22;;;3.53;;
40867;SDS011;26586;50.708;22.412;2023-02-24T05:43:14;14.35;;;8.70;;
40867;SDS011;26586;50.708;22.412;2023-02-24T05:45:44;7.20;;;4.25;;
40867;SDS011;26586;50.708;22.412;2023-02-24T05:50:40;11.48;;;3.90;;
40867;SDS011;26586;50.708;22.412;2023-02-24T05:53:11;7.00;;;3.65;;
40867;SDS011;26586;50.708;22.412;2023-02-24T05:58:04;7.95;;;3.78;;
40867;SDS011;26586;50.708;22.412;2023-02-24T06:02:58;9.65;;;3.97;;
40867;SDS011;26586;50.708;22.412;2023-02-24T06:05:32;7.88;;;3.67;;
40867;SDS011;26586;50.708;22.412;2023-02-24T06:08:00;6.90;;;3.92;;
40867;SDS011;26586;50.708;22.412;2023-02-24T06:10:30;6.75;;;3.75;;
40867;SDS011;26586;50.708;22.412;2023-02-24T06:13:01;6.40;;;3.05;;
40867;SDS011;26586;50.708;22.412;2023-02-24T06:15:27;6.47;;;3.60;;
40867;SDS011;26586;50.708;22.412;2023-02-24T06:20:22;8.38;;;4.45;;
40867;SDS011;26586;50.708;22.412;2023-02-24T06:22:54;8.35;;;4.40;;
40867;SDS011;26586;50.708;22.412;2023-02-24T06:25:24;7.07;;;4.22;;
40867;SDS011;26586;50.708;22.412;2023-02-24T06:27:51;8.60;;;5.30;;
40867;SDS011;26586;50.708;22.412;2023-02-24T06:30:20;11.15;;;5.15;;
40867;SDS011;26586;50.708;22.412;2023-02-24T06:32:47;8.15;;;4.40;;
40867;SDS011;26586;50.708;22.412;2023-02-24T06:35:16;8.10;;;3.78;;
40867;SDS011;26586;50.708;22.412;2023-02-24T06:40:09;12.43;;;6.65;;
40867;SDS011;26586;50.708;22.412;2023-02-24T06:42:46;8.07;;;4.78;;
40867;SDS011;26586;50.708;22.412;2023-02-24T06:45:14;11.85;;;5.85;;
40867;SDS011;26586;50.708;22.412;2023-02-24T06:47:41;35.90;;;19.35;;
40867;SDS011;26586;50.708;22.412;2023-02-24T06:50:09;27.70;;;17.33;;
40867;SDS011;26586;50.708;22.412;2023-02-24T06:52:37;9.55;;;4.50;;
40867;SDS011;26586;50.708;22.412;2023-02-24T06:55:05;22.02;;;13.88;;
40867;SDS011;26586;50.708;22.412;2023-02-24T06:57:52;32.05;;;25.45;;
40867;SDS011;26586;50.708;22.412;2023-02-24T07:00:26;21.38;;;15.18;;
40867;SDS011;26586;50.708;22.412;2023-02-24T07:03:09;18.98;;;8.38;;
40867;SDS011;26586;50.708;22.412;2023-02-24T07:05:48;13.55;;;7.10;;
40867;SDS011;26586;50.708;22.412;2023-02-24T07:08:19;16.02;;;8.05;;
40867;SDS011;26586;50.708;22.412;2023-02-24T07:10:51;14.15;;;7.00;;
40867;SDS011;26586;50.708;22.412;2023-02-24T07:13:17;25.92;;;12.18;;
40867;SDS011;26586;50.708;22.412;2023-02-24T07:15:44;11.37;;;6.00;;
40867;SDS011;26586;50.708;22.412;2023-02-24T07:18:14;17.80;;;8.40;;
40867;SDS011;26586;50.708;22.412;2023-02-24T07:20:42;18.88;;;9.13;;
40867;SDS011;26586;50.708;22.412;2023-02-24T07:23:16;12.35;;;6.55;;
40867;SDS011;26586;50.708;22.412;2023-02-24T07:25:43;17.08;;;9.43;;
40867;SDS011;26586;50.708;22.412;2023-02-24T07:28:13;16.30;;;8.55;;
40867;SDS011;26586;50.708;22.412;2023-02-24T07:30:40;15.32;;;8.80;;
40867;SDS011;26586;50.708;22.412;2023-02-24T07:33:06;16.17;;;7.53;;
40867;SDS011;26586;50.708;22.412;2023-02-24T07:35:33;14.32;;;6.13;;
40867;SDS011;26586;50.708;22.412;2023-02-24T07:38:04;13.40;;;7.68;;
40867;SDS011;26586;50.708;22.412;2023-02-24T07:40:34;10.20;;;5.82;;
40867;SDS011;26586;50.708;22.412;2023-02-24T07:43:00;8.40;;;5.72;;
40867;SDS011;26586;50.708;22.412;2023-02-24T07:45:27;14.63;;;6.80;;
40867;SDS011;26586;50.708;22.412;2023-02-24T07:47:54;15.07;;;7.60;;
40867;SDS011;26586;50.708;22.412;2023-02-24T07:50:21;41.92;;;37.35;;
40867;SDS011;26586;50.708;22.412;2023-02-24T07:52:48;30.27;;;25.70;;
40867;SDS011;26586;50.708;22.412;2023-02-24T07:55:14;17.63;;;11.27;;
40867;SDS011;26586;50.708;22.412;2023-02-24T07:57:41;21.57;;;12.77;;
40867;SDS011;26586;50.708;22.412;2023-02-24T08:00:12;16.92;;;10.68;;
40867;SDS011;26586;50.708;22.412;2023-02-24T08:02:53;52.88;;;31.58;;
40867;SDS011;26586;50.708;22.412;2023-02-24T08:05:22;34.50;;;26.15;;
40867;SDS011;26586;50.708;22.412;2023-02-24T08:07:49;30.55;;;21.30;;
40867;SDS011;26586;50.708;22.412;2023-02-24T08:10:17;8.45;;;6.97;;
40867;SDS011;26586;50.708;22.412;2023-02-24T08:12:50;11.05;;;6.50;;
40867;SDS011;26586;50.708;22.412;2023-02-24T08:15:23;23.65;;;13.57;;
40867;SDS011;26586;50.708;22.412;2023-02-24T08:17:55;29.73;;;18.23;;
40867;SDS011;26586;50.708;22.412;2023-02-24T08:20:26;19.75;;;12.27;;
40867;SDS011;26586;50.708;22.412;2023-02-24T08:23:13;23.70;;;15.23;;
40867;SDS011;26586;50.708;22.412;2023-02-24T08:25:39;31.67;;;20.88;;
40867;SDS011;26586;50.708;22.412;2023-02-24T08:28:08;21.85;;;14.90;;
40867;SDS011;26586;50.708;22.412;2023-02-24T08:30:37;21.17;;;14.70;;
40867;SDS011;26586;50.708;22.412;2023-02-24T08:33:05;11.57;;;6.90;;
40867;SDS011;26586;50.708;22.412;2023-02-24T08:35:34;16.25;;;10.48;;
40867;SDS011;26586;50.708;22.412;2023-02-24T08:40:34;11.10;;;6.78;;
40867;SDS011;26586;50.708;22.412;2023-02-24T08:43:04;7.72;;;5.13;;
40867;SDS011;26586;50.708;22.412;2023-02-24T08:45:54;9.82;;;6.05;;
40867;SDS011;26586;50.708;22.412;2023-02-24T08:48:32;10.90;;;6.03;;
40867;SDS011;26586;50.708;22.412;2023-02-24T08:53:33;7.25;;;4.35;;
40867;SDS011;26586;50.708;22.412;2023-02-24T08:56:01;11.38;;;5.70;;
40867;SDS011;26586;50.708;22.412;2023-02-24T08:58:37;10.63;;;6.00;;
40867;SDS011;26586;50.708;22.412;2023-02-24T09:01:06;18.73;;;12.52;;
40867;SDS011;26586;50.708;22.412;2023-02-24T09:03:46;13.75;;;9.32;;
40867;SDS011;26586;50.708;22.412;2023-02-24T09:06:16;14.70;;;10.68;;
40867;SDS011;26586;50.708;22.412;2023-02-24T09:08:50;9.98;;;7.10;;
40867;SDS011;26586;50.708;22.412;2023-02-24T09:11:38;8.93;;;5.72;;
40867;SDS011;26586;50.708;22.412;2023-02-24T09:14:17;20.75;;;14.25;;
40867;SDS011;26586;50.708;22.412;2023-02-24T09:16:45;12.02;;;8.30;;
40867;SDS011;26586;50.708;22.412;2023-02-24T09:22:13;8.38;;;5.45;;
40867;SDS011;26586;50.708;22.412;2023-02-24T09:24:56;11.75;;;6.93;;
40867;SDS011;26586;50.708;22.412;2023-02-24T09:30:21;13.00;;;8.35;;
40867;SDS011;26586;50.708;22.412;2023-02-24T09:36:00;13.48;;;9.40;;
40867;SDS011;26586;50.708;22.412;2023-02-24T09:38:38;7.60;;;6.07;;
40867;SDS011;26586;50.708;22.412;2023-02-24T09:41:38;11.13;;;5.50;;
40867;SDS011;26586;50.708;22.412;2023-02-24T09:49:54;11.18;;;7.82;;
40867;SDS011;26586;50.708;22.412;2023-02-24T09:52:25;9.48;;;5.57;;
40867;SDS011;26586;50.708;22.412;2023-02-24T10:03:49;10.60;;;5.50;;
40867;SDS011;26586;50.708;22.412;2023-02-24T10:06:39;47.55;;;36.92;;
40867;SDS011;26586;50.708;22.412;2023-02-24T10:09:17;19.80;;;11.73;;
40867;SDS011;26586;50.708;22.412;2023-02-24T10:11:50;9.82;;;7.28;;
40867;SDS011;26586;50.708;22.412;2023-02-24T10:19:50;50.83;;;40.20;;
40867;SDS011;26586;50.708;22.412;2023-02-24T10:28:09;56.40;;;34.00;;
40867;SDS011;26586;50.708;22.412;2023-02-24T10:33:17;11.88;;;8.38;;
40867;SDS011;26586;50.708;22.412;2023-02-24T10:35:45;30.75;;;21.00;;
40867;SDS011;26586;50.708;22.412;2023-02-24T10:38:12;98.43;;;47.85;;
40867;SDS011;26586;50.708;22.412;2023-02-24T10:40:43;84.28;;;52.55;;
40867;SDS011;26586;50.708;22.412;2023-02-24T10:43:22;14.88;;;9.02;;
40867;SDS011;26586;50.708;22.412;2023-02-24T10:45:59;43.28;;;30.88;;
40867;SDS011;26586;50.708;22.412;2023-02-24T10:48:31;26.50;;;15.77;;
40867;SDS011;26586;50.708;22.412;2023-02-24T10:51:16;38.83;;;26.98;;
40867;SDS011;26586;50.708;22.412;2023-02-24T10:54:02;8.75;;;6.18;;
40867;SDS011;26586;50.708;22.412;2023-02-24T10:57:06;12.90;;;7.95;;
40867;SDS011;26586;50.708;22.412;2023-02-24T11:02:52;50.17;;;28.02;;
40867;SDS011;26586;50.708;22.412;2023-02-24T11:05:40;11.55;;;8.80;;
40867;SDS011;26586;50.708;22.412;2023-02-24T11:08:26;14.82;;;9.13;;
40867;SDS011;26586;50.708;22.412;2023-02-24T11:11:09;26.15;;;13.80;;
40867;SDS011;26586;50.708;22.412;2023-02-24T11:14:23;58.78;;;23.60;;
40867;SDS011;26586;50.708;22.412;2023-02-24T11:17:15;17.50;;;9.77;;
40867;SDS011;26586;50.708;22.412;2023-02-24T11:19:49;20.38;;;10.45;;
40867;SDS011;26586;50.708;22.412;2023-02-24T11:22:21;13.18;;;7.95;;
40867;SDS011;26586;50.708;22.412;2023-02-24T11:24:52;16.70;;;12.90;;
40867;SDS011;26586;50.708;22.412;2023-02-24T11:27:21;21.65;;;11.40;;
40867;SDS011;26586;50.708;22.412;2023-02-24T11:32:31;12.05;;;7.88;;
40867;SDS011;26586;50.708;22.412;2023-02-24T11:40:43;15.18;;;8.38;;
40867;SDS011;26586;50.708;22.412;2023-02-24T11:43:15;13.48;;;8.07;;
40867;SDS011;26586;50.708;22.412;2023-02-24T11:45:46;19.10;;;12.05;;
40867;SDS011;26586;50.708;22.412;2023-02-24T11:50:56;22.33;;;14.50;;
40867;SDS011;26586;50.708;22.412;2023-02-24T11:53:34;26.80;;;18.50;;
40867;SDS011;26586;50.708;22.412;2023-02-24T11:56:11;11.02;;;7.78;;
40867;SDS011;26586;50.708;22.412;2023-02-24T11:58:43;14.23;;;10.48;;
40867;SDS011;26586;50.708;22.412;2023-02-24T12:01:34;8.82;;;7.10;;
40867;SDS011;26586;50.708;22.412;2023-02-24T12:09:33;14.23;;;9.73;;
40867;SDS011;26586;50.708;22.412;2023-02-24T12:14:46;13.82;;;8.57;;
40867;SDS011;26586;50.708;22.412;2023-02-24T12:17:30;13.80;;;9.10;;
40867;SDS011;26586;50.708;22.412;2023-02-24T12:20:20;15.75;;;11.43;;
40867;SDS011;26586;50.708;22.412;2023-02-24T12:25:21;13.27;;;9.23;;
40867;SDS011;26586;50.708;22.412;2023-02-24T12:28:07;13.50;;;8.30;;
40867;SDS011;26586;50.708;22.412;2023-02-24T12:30:52;11.52;;;7.72;;
40867;SDS011;26586;50.708;22.412;2023-02-24T12:39:27;11.38;;;8.32;;
40867;SDS011;26586;50.708;22.412;2023-02-24T12:47:21;10.55;;;7.07;;
40867;SDS011;26586;50.708;22.412;2023-02-24T12:58:20;80.80;;;46.95;;
40867;SDS011;26586;50.708;22.412;2023-02-24T13:09:45;12.15;;;8.77;;
40867;SDS011;26586;50.708;22.412;2023-02-24T13:14:51;16.05;;;11.38;;
40867;SDS011;26586;50.708;22.412;2023-02-24T13:17:19;16.05;;;9.73;;
40867;SDS011;26586;50.708;22.412;2023-02-24T13:19:52;15.45;;;11.35;;
40867;SDS011;26586;50.708;22.412;2023-02-24T13:22:21;18.63;;;14.68;;
40867;SDS011;26586;50.708;22.412;2023-02-24T13:27:34;16.33;;;11.75;;
40867;SDS011;26586;50.708;22.412;2023-02-24T13:30:22;10.82;;;6.85;;
40867;SDS011;26586;50.708;22.412;2023-02-24T13:33:01;36.00;;;13.07;;
40867;SDS011;26586;50.708;22.412;2023-02-24T13:35:43;25.48;;;11.68;;
40867;SDS011;26586;50.708;22.412;2023-02-24T13:40:48;13.63;;;7.75;;
40867;SDS011;26586;50.708;22.412;2023-02-24T13:43:21;16.58;;;8.95;;
40867;SDS011;26586;50.708;22.412;2023-02-24T13:45:55;13.73;;;7.78;;
40867;SDS011;26586;50.708;22.412;2023-02-24T13:48:35;13.02;;;8.00;;
40867;SDS011;26586;50.708;22.412;2023-02-24T13:57:30;25.15;;;11.52;;
40867;SDS011;26586;50.708;22.412;2023-02-24T14:00:27;25.50;;;13.88;;
40867;SDS011;26586;50.708;22.412;2023-02-24T14:03:14;16.13;;;9.75;;
40867;SDS011;26586;50.708;22.412;2023-02-24T14:05:44;18.50;;;10.63;;
40867;SDS011;26586;50.708;22.412;2023-02-24T14:08:24;22.45;;;12.35;;
40867;SDS011;26586;50.708;22.412;2023-02-24T14:10:56;26.55;;;15.60;;
40867;SDS011;26586;50.708;22.412;2023-02-24T14:13:25;34.85;;;18.45;;
40867;SDS011;26586;50.708;22.412;2023-02-24T14:15:54;30.02;;;17.55;;
40867;SDS011;26586;50.708;22.412;2023-02-24T14:20:52;22.30;;;13.40;;
40867;SDS011;26586;50.708;22.412;2023-02-24T14:25:56;22.02;;;13.18;;
40867;SDS011;26586;50.708;22.412;2023-02-24T14:28:31;33.97;;;19.33;;
40867;SDS011;26586;50.708;22.412;2023-02-24T14:31:02;36.92;;;21.27;;
40867;SDS011;26586;50.708;22.412;2023-02-24T14:33:52;25.45;;;17.48;;
40867;SDS011;26586;50.708;22.412;2023-02-24T14:36:25;19.48;;;12.60;;
40867;SDS011;26586;50.708;22.412;2023-02-24T14:39:08;20.33;;;12.90;;
40867;SDS011;26586;50.708;22.412;2023-02-24T14:41:42;23.23;;;13.10;;
40867;SDS011;26586;50.708;22.412;2023-02-24T14:46:50;23.30;;;13.77;;
40867;SDS011;26586;50.708;22.412;2023-02-24T14:49:19;18.50;;;12.13;;
40867;SDS011;26586;50.708;22.412;2023-02-24T14:51:55;19.00;;;11.48;;
40867;SDS011;26586;50.708;22.412;2023-02-24T14:54:40;26.80;;;16.80;;
40867;SDS011;26586;50.708;22.412;2023-02-24T14:57:18;31.02;;;19.63;;
40867;SDS011;26586;50.708;22.412;2023-02-24T14:59:51;24.02;;;15.38;;
40867;SDS011;26586;50.708;22.412;2023-02-24T15:02:23;30.45;;;19.55;;
40867;SDS011;26586;50.708;22.412;2023-02-24T15:04:55;28.60;;;16.25;;
40867;SDS011;26586;50.708;22.412;2023-02-24T15:09:54;74.20;;;42.97;;
40867;SDS011;26586;50.708;22.412;2023-02-24T15:12:41;38.05;;;24.77;;
40867;SDS011;26586;50.708;22.412;2023-02-24T15:15:27;58.22;;;38.80;;
40867;SDS011;26586;50.708;22.412;2023-02-24T15:17:57;67.18;;;42.90;;
40867;SDS011;26586;50.708;22.412;2023-02-24T15:23:00;58.83;;;38.25;;
40867;SDS011;26586;50.708;22.412;2023-02-24T15:25:44;48.72;;;25.02;;
40867;SDS011;26586;50.708;22.412;2023-02-24T15:28:21;32.28;;;20.38;;
40867;SDS011;26586;50.708;22.412;2023-02-24T15:36:35;37.40;;;21.17;;
40867;SDS011;26586;50.708;22.412;2023-02-24T15:39:08;42.45;;;26.85;;
40867;SDS011;26586;50.708;22.412;2023-02-24T15:41:48;39.10;;;26.00;;
40867;SDS011;26586;50.708;22.412;2023-02-24T15:44:29;41.22;;;25.73;;
40867;SDS011;26586;50.708;22.412;2023-02-24T15:46:58;55.75;;;34.83;;
40867;SDS011;26586;50.708;22.412;2023-02-24T15:49:25;37.42;;;25.85;;
40867;SDS011;26586;50.708;22.412;2023-02-24T15:51:53;45.60;;;29.17;;
40867;SDS011;26586;50.708;22.412;2023-02-24T15:54:26;75.75;;;40.15;;
40867;SDS011;26586;50.708;22.412;2023-02-24T15:56:56;42.75;;;27.38;;
40867;SDS011;26586;50.708;22.412;2023-02-24T15:59:24;39.78;;;26.65;;
40867;SDS011;26586;50.708;22.412;2023-02-24T16:01:51;40.05;;;24.92;;
40867;SDS011;26586;50.708;22.412;2023-02-24T16:04:17;40.30;;;22.65;;
40867;SDS011;26586;50.708;22.412;2023-02-24T16:06:45;28.15;;;17.15;;
40867;SDS011;26586;50.708;22.412;2023-02-24T16:12:02;61.92;;;30.60;;
40867;SDS011;26586;50.708;22.412;2023-02-24T16:14:31;51.28;;;22.48;;
40867;SDS011;26586;50.708;22.412;2023-02-24T16:17:05;56.50;;;24.27;;
40867;SDS011;26586;50.708;22.412;2023-02-24T16:19:33;33.78;;;19.13;;
40867;SDS011;26586;50.708;22.412;2023-02-24T16:21:59;53.08;;;23.42;;
40867;SDS011;26586;50.708;22.412;2023-02-24T16:24:26;22.77;;;15.40;;
40867;SDS011;26586;50.708;22.412;2023-02-24T16:26:52;24.23;;;16.33;;
40867;SDS011;26586;50.708;22.412;2023-02-24T16:29:18;31.83;;;17.35;;
40867;SDS011;26586;50.708;22.412;2023-02-24T16:31:45;42.27;;;23.70;;
40867;SDS011;26586;50.708;22.412;2023-02-24T16:34:12;38.35;;;21.67;;
40867;SDS011;26586;50.708;22.412;2023-02-24T16:36:41;35.78;;;21.98;;
40867;SDS011;26586;50.708;22.412;2023-02-24T16:39:08;28.92;;;15.55;;
40867;SDS011;26586;50.708;22.412;2023-02-24T16:41:37;27.58;;;16.20;;
40867;SDS011;26586;50.708;22.412;2023-02-24T16:44:03;27.90;;;16.85;;
40867;SDS011;26586;50.708;22.412;2023-02-24T16:46:31;29.25;;;15.02;;
40867;SDS011;26586;50.708;22.412;2023-02-24T16:49:02;28.30;;;17.05;;
40867;SDS011;26586;50.708;22.412;2023-02-24T16:51:33;31.73;;;19.13;;
40867;SDS011;26586;50.708;22.412;2023-02-24T16:54:00;26.88;;;18.65;;
40867;SDS011;26586;50.708;22.412;2023-02-24T16:56:26;17.15;;;10.90;;
40867;SDS011;26586;50.708;22.412;2023-02-24T16:58:53;18.98;;;12.73;;
40867;SDS011;26586;50.708;22.412;2023-02-24T17:01:19;15.18;;;10.30;;
40867;SDS011;26586;50.708;22.412;2023-02-24T17:03:47;18.83;;;11.98;;
40867;SDS011;26586;50.708;22.412;2023-02-24T17:06:16;13.27;;;10.48;;
40867;SDS011;26586;50.708;22.412;2023-02-24T17:08:42;17.98;;;12.63;;
40867;SDS011;26586;50.708;22.412;2023-02-24T17:11:14;15.23;;;11.32;;
40867;SDS011;26586;50.708;22.412;2023-02-24T17:13:42;17.33;;;12.52;;
40867;SDS011;26586;50.708;22.412;2023-02-24T17:16:09;19.75;;;11.65;;
40867;SDS011;26586;50.708;22.412;2023-02-24T17:18:36;15.10;;;10.60;;
40867;SDS011;26586;50.708;22.412;2023-02-24T17:21:02;11.52;;;8.77;;
40867;SDS011;26586;50.708;22.412;2023-02-24T17:23:29;21.33;;;14.25;;
40867;SDS011;26586;50.708;22.412;2023-02-24T17:25:58;52.55;;;34.33;;
40867;SDS011;26586;50.708;22.412;2023-02-24T17:28:26;41.17;;;25.10;;
40867;SDS011;26586;50.708;22.412;2023-02-24T17:33:19;34.50;;;20.67;;
40867;SDS011;26586;50.708;22.412;2023-02-24T17:35:46;63.47;;;31.80;;
40867;SDS011;26586;50.708;22.412;2023-02-24T17:38:16;49.15;;;25.13;;
40867;SDS011;26586;50.708;22.412;2023-02-24T17:40:44;36.90;;;22.40;;
40867;SDS011;26586;50.708;22.412;2023-02-24T17:43:11;32.42;;;20.90;;
40867;SDS011;26586;50.708;22.412;2023-02-24T17:45:41;26.23;;;16.67;;
40867;SDS011;26586;50.708;22.412;2023-02-24T17:48:10;32.50;;;19.60;;
40867;SDS011;26586;50.708;22.412;2023-02-24T17:50:39;26.30;;;18.58;;
40867;SDS011;26586;50.708;22.412;2023-02-24T17:53:06;28.52;;;17.27;;
40867;SDS011;26586;50.708;22.412;2023-02-24T17:55:33;28.25;;;16.70;;
40867;SDS011;26586;50.708;22.412;2023-02-24T17:57:59;41.55;;;23.33;;
40867;SDS011;26586;50.708;22.412;2023-02-24T18:00:26;44.22;;;25.73;;
40867;SDS011;26586;50.708;22.412;2023-02-24T18:02:52;32.20;;;22.45;;
40867;SDS011;26586;50.708;22.412;2023-02-24T18:05:19;33.90;;;21.60;;
40867;SDS011;26586;50.708;22.412;2023-02-24T18:07:45;51.90;;;34.15;;
40867;SDS011;26586;50.708;22.412;2023-02-24T18:10:12;55.33;;;29.67;;
40867;SDS011;26586;50.708;22.412;2023-02-24T18:12:38;36.75;;;24.52;;
40867;SDS011;26586;50.708;22.412;2023-02-24T18:15:04;29.77;;;19.23;;
40867;SDS011;26586;50.708;22.412;2023-02-24T18:19:58;21.92;;;16.23;;
40867;SDS011;26586;50.708;22.412;2023-02-24T18:22:24;26.27;;;17.70;;